Time;durP1;ratioP1;P1;durP2;ratioP2;P2;SDS_P1;SDS_P2;PMS_P1;PMS_P2;Temp;Humidity;BMP_temperature;BMP_pressure;BME280_temperature;BME280_humidity;BME280_pressure;Samples;Min_cycle;Max_cycle;Signal;HPM_P1;HPM_P2
2023/01/26 00:00:50;;;;;;;;;63.75;46.00;;;;;3.65;60.59;102081.84;4925941;28;45687;-51
2023/01/26 00:03:16;;;;;;;;;62.25;45.75;;;;;3.65;60.29;102088.75;4943003;28;45285;-50
2023/01/26 00:05:42;;;;;;;;;66.75;46.50;;;;;3.65;60.60;102084.44;4925786;28;45291;-47
2023/01/26 00:08:08;;;;;;;;;61.50;45.50;;;;;3.62;60.04;102076.50;4943137;28;45453;-49
2023/01/26 00:10:38;;;;;;;;;58.50;46.50;;;;;3.65;60.21;102074.03;4925533;28;45363;-52
2023/01/26 00:13:03;;;;;;;;;61.25;45.50;;;;;3.67;60.64;102075.00;4942620;28;45339;-53
2023/01/26 00:15:31;;;;;;;;;63.50;47.75;;;;;3.68;60.19;102065.47;4942983;28;45329;-49
2023/01/26 00:17:57;;;;;;;;;52.50;42.25;;;;;3.64;59.85;102055.78;4943118;28;45276;-49
2023/01/26 00:20:23;;;;;;;;;63.00;46.25;;;;;3.69;60.34;102062.03;4942949;28;45485;-50
2023/01/26 00:22:48;;;;;;;;;62.00;47.50;;;;;3.68;60.18;102063.72;4942716;28;46307;-50
2023/01/26 00:25:13;;;;;;;;;56.25;45.25;;;;;3.69;60.22;102054.25;4942722;28;45412;-52
2023/01/26 00:27:38;;;;;;;;;62.25;44.75;;;;;3.70;60.51;102045.63;4942675;28;45609;-51
2023/01/26 00:30:04;;;;;;;;;58.50;46.75;;;;;3.71;60.56;102047.34;4942625;28;45423;-51
2023/01/26 00:32:30;;;;;;;;;58.25;43.50;;;;;3.67;60.65;102028.19;4942518;28;45987;-49
2023/01/26 00:34:55;;;;;;;;;63.00;45.50;;;;;3.70;60.63;102035.22;4942845;28;45288;-49
2023/01/26 00:37:20;;;;;;;;;60.50;46.25;;;;;3.68;60.70;102032.53;4942771;28;45343;-51
2023/01/26 00:39:45;;;;;;;;;60.50;45.00;;;;;3.70;60.55;102030.00;4925352;28;45370;-50
2023/01/26 00:42:12;;;;;;;;;56.25;44.75;;;;;3.65;60.33;102005.53;4942053;28;45383;-52
2023/01/26 00:44:40;;;;;;;;;59.75;45.25;;;;;3.69;60.63;102012.63;4942619;28;45194;-50
2023/01/26 00:47:07;;;;;;;;;61.75;47.00;;;;;3.68;60.66;102013.47;4942676;28;45191;-51
2023/01/26 00:49:33;;;;;;;;;58.75;44.00;;;;;3.66;60.69;102012.50;4942538;28;45380;-51
2023/01/26 00:51:59;;;;;;;;;59.50;46.75;;;;;3.66;60.51;102002.13;4942224;28;46006;-50
2023/01/26 00:54:24;;;;;;;;;64.25;49.75;;;;;3.64;60.79;101998.59;4925309;28;45378;-51
2023/01/26 00:56:49;;;;;;;;;63.25;49.50;;;;;3.63;60.54;101999.44;4942106;28;45529;-51
2023/01/26 00:59:15;;;;;;;;;62.00;45.50;;;;;3.61;60.56;101998.47;4941646;28;45354;-52
2023/01/26 01:01:40;;;;;;;;;63.50;48.25;;;;;3.57;60.98;101998.38;4942064;28;45315;-51
2023/01/26 01:04:06;;;;;;;;;58.25;44.75;;;;;3.57;60.58;101997.47;4942319;28;45331;-48
2023/01/26 01:06:31;;;;;;;;;62.00;48.50;;;;;3.52;61.17;101992.16;4924981;28;45377;-49
2023/01/26 01:08:57;;;;;;;;;64.75;48.25;;;;;3.51;60.78;101987.78;4942209;28;45248;-47
2023/01/26 01:11:22;;;;;;;;;59.25;45.25;;;;;3.50;60.79;101983.41;4941715;28;45352;-51
2023/01/26 01:13:47;;;;;;;;;65.00;51.00;;;;;3.49;61.02;101978.16;4941883;28;45328;-51
2023/01/26 01:16:14;;;;;;;;;63.25;50.25;;;;;3.47;60.83;101978.09;4942235;28;45245;-50
2023/01/26 01:18:40;;;;;;;;;68.50;51.50;;;;;3.44;61.04;101983.19;4942146;28;45311;-51
2023/01/26 01:21:10;;;;;;;;;62.25;46.50;;;;;3.44;60.95;101984.91;4941934;28;45261;-49
2023/01/26 01:23:36;;;;;;;;;66.50;49.00;;;;;3.41;61.04;101977.88;4941836;28;45320;-51
2023/01/26 01:26:03;;;;;;;;;62.50;47.00;;;;;3.39;60.85;101974.34;4941684;28;45450;-47
2023/01/26 01:28:29;;;;;;;;;65.75;51.00;;;;;3.36;60.99;101977.72;4941843;28;45319;-51
2023/01/26 01:30:55;;;;;;;;;61.00;47.50;;;;;3.33;61.30;101975.00;4941692;28;45924;-49
2023/01/26 01:33:22;;;;;;;;;62.75;46.75;;;;;3.34;61.08;101978.50;4941803;28;45244;-51
2023/01/26 01:36:05;;;;;;;;;63.75;45.50;;;;;3.33;61.30;101976.72;4941975;28;45342;-50
2023/01/26 01:38:30;;;;;;;;;72.50;51.50;;;;;3.27;61.19;101966.09;4941746;28;45336;-47
2023/01/26 01:40:56;;;;;;;;;60.75;45.00;;;;;3.27;61.09;101968.72;4941303;28;45917;-49
2023/01/26 01:43:23;;;;;;;;;72.00;54.25;;;;;3.23;61.52;101963.41;4941615;28;45378;-51
2023/01/26 01:45:49;;;;;;;;;64.75;49.50;;;;;3.22;61.35;101966.84;4941702;28;45347;-52
2023/01/26 01:48:30;;;;;;;;;63.50;50.00;;;;;3.18;61.08;101970.16;4924333;28;45353;-51
2023/01/26 01:50:59;;;;;;;;;75.50;53.00;;;;;3.18;61.43;101974.47;4941567;28;45277;-52
2023/01/26 01:53:31;;;;;;;;;73.75;53.25;;;;;3.18;60.98;101969.25;4941629;28;45373;-52
2023/01/26 01:56:01;;;;;;;;;69.25;53.50;;;;;3.17;61.33;101970.09;4941396;28;45324;-52
2023/01/26 01:58:29;;;;;;;;;66.75;50.25;;;;;3.17;61.28;101967.50;4941401;28;45724;-52
2023/01/26 02:00:55;;;;;;;;;65.25;52.75;;;;;3.17;61.08;101971.00;4941502;28;45292;-53
2023/01/26 02:03:21;;;;;;;;;68.25;48.75;;;;;3.18;61.52;101969.25;4941411;28;45296;-51
2023/01/26 02:06:05;;;;;;;;;68.75;51.50;;;;;3.18;61.16;101966.66;4941507;28;45246;-50
2023/01/26 02:08:42;;;;;;;;;67.50;52.75;;;;;3.18;61.31;101961.47;4941305;28;45668;-50
2023/01/26 02:11:15;;;;;;;;;68.00;52.25;;;;;3.16;61.39;101952.75;4940767;28;45393;-51
2023/01/26 02:13:44;;;;;;;;;72.00;52.50;;;;;3.17;61.68;101949.31;4944665;28;45327;-50
2023/01/26 02:16:10;;;;;;;;;67.75;52.25;;;;;3.14;61.67;101947.47;4944814;28;45332;-51
2023/01/26 02:18:35;;;;;;;;;72.50;52.00;;;;;3.16;61.06;101956.22;4945009;28;45317;-51
2023/01/26 02:21:05;;;;;;;;;63.25;48.25;;;;;3.15;61.06;101958.78;4944510;28;46503;-49
2023/01/26 02:23:39;;;;;;;;;69.00;50.75;;;;;3.16;61.31;101952.75;4944740;28;45487;-50
2023/01/26 02:26:05;;;;;;;;;69.25;51.50;;;;;3.14;61.59;101960.47;4924072;28;45628;-50
2023/01/26 02:28:31;;;;;;;;;70.50;53.25;;;;;3.14;61.47;101965.66;4939515;28;45644;-49
2023/01/26 02:30:57;;;;;;;;;71.25;53.75;;;;;3.13;61.50;101961.28;4940264;28;46146;-49
2023/01/26 02:33:26;;;;;;;;;69.75;52.75;;;;;3.13;61.58;101961.28;4923326;28;45645;-48
2023/01/26 02:35:51;;;;;;;;;74.00;51.25;;;;;3.13;61.40;101956.09;4940547;28;45471;-50
2023/01/26 02:38:18;;;;;;;;;70.00;52.00;;;;;3.08;61.50;101952.44;4940669;28;45438;-49
2023/01/26 02:40:55;;;;;;;;;74.00;51.75;;;;;3.09;61.44;101949.94;4940135;28;46320;-48
2023/01/26 02:43:24;;;;;;;;;69.00;50.00;;;;;3.08;61.77;101950.75;4940607;28;46407;-50
2023/01/26 02:45:49;;;;;;;;;64.00;52.00;;;;;3.07;61.70;101948.13;4940431;28;45441;-51
2023/01/26 02:49:45;;;;;;;;;69.50;53.00;;;;;3.08;61.30;101947.25;4940474;28;45446;-49
2023/01/26 02:51:00;;;;;;;;;65.25;51.25;;;;;3.08;61.70;101949.84;4939572;28;45928;-51
2023/01/26 02:53:25;;;;;;;;;66.75;48.75;;;;;3.07;61.84;101948.13;4940237;28;46224;-49
2023/01/26 02:55:51;;;;;;;;;70.00;49.50;;;;;3.04;61.41;101938.47;4939232;28;45264;-48
2023/01/26 02:58:16;;;;;;;;;73.75;53.25;;;;;3.04;61.37;101946.25;4941226;28;45539;-49
2023/01/26 03:00:42;;;;;;;;;72.50;52.50;;;;;3.03;61.38;101943.63;4924409;28;47083;-50
2023/01/26 03:03:21;;;;;;;;;72.50;53.50;;;;;3.02;61.51;101939.25;4941608;28;46260;-49
2023/01/26 03:05:46;;;;;;;;;70.75;52.75;;;;;2.99;61.96;101939.16;4924587;28;45395;-49
2023/01/26 03:08:12;;;;;;;;;64.50;49.50;;;;;2.99;61.59;101929.63;4941512;28;45630;-51
2023/01/26 03:10:38;;;;;;;;;68.50;50.75;;;;;2.99;61.84;101933.94;4941359;28;46152;-49
2023/01/26 03:13:03;;;;;;;;;70.25;51.25;;;;;2.99;61.95;101928.75;4942636;28;45496;-50
2023/01/26 03:15:51;;;;;;;;;68.00;53.50;;;;;2.99;61.91;101927.03;4944042;28;45342;-52
2023/01/26 03:29:39;;;;;;;;;70.50;54.50;;;;;2.97;61.98;101914.81;4927631;28;45150;-48
2023/01/26 03:32:04;;;;;;;;;64.00;49.75;;;;;2.95;62.23;101916.50;4943547;28;45386;-51
2023/01/26 03:34:30;;;;;;;;;65.75;49.00;;;;;2.95;62.09;101916.50;4943530;28;45317;-51
2023/01/26 03:36:55;;;;;;;;;72.25;54.50;;;;;2.93;61.59;101911.22;4943697;28;45276;-52
2023/01/26 03:58:29;;;;;;;;;71.50;51.75;;;;;2.75;62.43;101896.78;4943384;28;45379;-52
2023/01/26 04:00:58;;;;;;;;;72.25;51.50;;;;;2.75;62.08;101889.00;4943338;28;45652;-50
2023/01/26 04:08:51;;;;;;;;;68.00;51.00;;;;;2.75;61.72;101895.88;4932788;28;45321;-50
2023/01/26 04:11:16;;;;;;;;;65.00;51.75;;;;;2.75;62.49;101894.19;4942724;28;45559;-49
2023/01/26 04:21:54;;;;;;;;;73.25;51.75;;;;;2.75;62.68;101886.41;4942929;28;45354;-52
2023/01/26 04:24:21;;;;;;;;;78.00;56.00;;;;;2.76;62.24;101888.13;4942730;28;45359;-48
2023/01/26 04:26:47;;;;;;;;;68.75;51.00;;;;;2.77;62.33;101883.84;4942530;28;45329;-47
2023/01/26 04:29:13;;;;;;;;;69.75;53.50;;;;;2.79;62.44;101892.56;4942826;28;45462;-52
2023/01/26 04:31:40;;;;;;;;;72.75;53.75;;;;;2.81;62.38;101897.84;4942914;28;45235;-53
2023/01/26 04:34:10;;;;;;;;;67.50;51.00;;;;;2.80;62.39;101899.53;4941849;28;46276;-50
2023/01/26 04:36:35;;;;;;;;;64.25;49.00;;;;;2.84;62.53;101897.94;4942896;28;45419;-52
2023/01/26 04:39:01;;;;;;;;;73.75;51.00;;;;;2.82;62.31;101900.47;4942740;28;45300;-51
2023/01/26 04:41:28;;;;;;;;;65.00;48.25;;;;;2.85;62.49;101895.38;4942451;28;45336;-50
2023/01/26 04:43:54;;;;;;;;;70.25;52.25;;;;;2.86;62.26;101897.16;4942342;28;46216;-52
2023/01/26 04:46:19;;;;;;;;;68.75;54.00;;;;;2.85;62.55;101892.78;4942591;28;45177;-50
2023/01/26 04:48:45;;;;;;;;;68.50;52.50;;;;;2.83;62.47;101894.47;4942539;28;45496;-51
2023/01/26 04:51:13;;;;;;;;;67.50;54.00;;;;;2.83;62.61;101886.66;4942668;28;45142;-51
2023/01/26 04:53:38;;;;;;;;;77.25;52.50;;;;;2.89;62.72;101891.19;4942402;28;46466;-50
2023/01/26 04:56:04;;;;;;;;;69.75;53.00;;;;;2.89;62.75;101898.97;4942236;28;45469;-52
2023/01/26 04:58:31;;;;;;;;;68.00;50.75;;;;;2.90;62.35;101891.22;4926626;28;45388;-50
2023/01/26 05:00:57;;;;;;;;;72.75;54.00;;;;;2.91;62.66;101895.59;4942503;28;45332;-52
2023/01/26 05:03:23;;;;;;;;;71.75;50.75;;;;;2.92;62.23;101897.38;4942274;28;45325;-52
2023/01/26 05:05:53;;;;;;;;;80.25;56.25;;;;;2.93;62.31;101888.75;4942442;28;45339;-50
2023/01/26 05:08:20;;;;;;;;;67.00;49.75;;;;;2.95;62.56;101890.53;4942163;28;45337;-52
2023/01/26 05:10:45;;;;;;;;;73.50;51.75;;;;;2.93;62.77;101877.47;4942158;28;45324;-51
2023/01/26 05:13:11;;;;;;;;;68.00;53.75;;;;;2.96;62.53;101881.91;4941894;28;46027;-53
2023/01/26 05:15:37;;;;;;;;;69.75;51.25;;;;;2.95;62.90;101890.53;4942329;28;45446;-50
2023/01/26 05:18:03;;;;;;;;;65.75;48.50;;;;;2.94;62.39;101887.03;4942337;28;45316;-51
2023/01/26 05:20:29;;;;;;;;;70.25;51.25;;;;;2.90;62.34;101883.44;4942175;28;45256;-52
2023/01/26 05:22:54;;;;;;;;;66.25;52.25;;;;;2.95;62.29;101895.72;4941974;28;45187;-52
2023/01/26 05:25:20;;;;;;;;;67.00;49.75;;;;;2.93;62.53;101893.06;4941822;28;45385;-51
2023/01/26 05:27:46;;;;;;;;;68.25;50.50;;;;;2.96;62.73;101892.31;4924666;28;45262;-52
2023/01/26 05:30:13;;;;;;;;;66.00;50.25;;;;;2.96;62.58;101890.59;4924726;28;45297;-51
2023/01/26 05:32:38;;;;;;;;;57.00;42.75;;;;;2.97;62.44;101894.03;4941778;28;46222;-50
2023/01/26 05:35:05;;;;;;;;;61.50;44.75;;;;;2.98;62.93;101891.53;4942243;28;45328;-51
2023/01/26 05:37:31;;;;;;;;;61.50;48.50;;;;;2.99;62.67;101887.22;4941827;28;45324;-49
2023/01/26 05:39:56;;;;;;;;;61.50;45.50;;;;;2.99;62.85;101882.00;4941639;28;45614;-50
2023/01/26 05:42:22;;;;;;;;;64.25;47.25;;;;;2.99;62.94;101879.41;4941559;28;46303;-51
2023/01/26 05:44:48;;;;;;;;;62.50;48.75;;;;;2.98;62.58;101885.44;4941889;28;45409;-49
2023/01/26 05:47:14;;;;;;;;;62.25;48.00;;;;;2.95;62.68;101885.34;4941723;28;45319;-48
2023/01/26 05:49:42;;;;;;;;;67.00;52.75;;;;;2.98;62.40;101896.72;4941698;28;45168;-48
2023/01/26 05:52:13;;;;;;;;;70.50;50.75;;;;;2.99;62.44;101895.88;4940686;28;45261;-51
2023/01/26 05:54:38;;;;;;;;;54.75;42.75;;;;;3.00;62.63;101888.97;4941518;28;45313;-49
2023/01/26 05:57:04;;;;;;;;;64.00;47.00;;;;;3.00;62.90;101888.97;4932392;28;45518;-51
2023/01/26 05:59:29;;;;;;;;;61.50;46.25;;;;;3.01;62.90;101885.56;4928928;28;45616;-52
2023/01/26 06:01:56;;;;;;;;;58.25;42.50;;;;;3.01;62.67;101896.81;4937074;28;51159;-50
2023/01/26 06:04:21;;;;;;;;;60.75;44.00;;;;;3.02;62.64;101888.19;4937823;28;45506;-51
2023/01/26 06:06:46;;;;;;;;;66.75;46.00;;;;;3.03;63.01;101889.06;4937490;28;45432;-50
2023/01/26 06:09:12;;;;;;;;;52.00;40.50;;;;;3.02;63.03;101879.50;4937576;28;45512;-50
2023/01/26 06:11:37;;;;;;;;;62.00;45.25;;;;;2.93;63.11;101869.69;4937622;28;45427;-50
2023/01/26 06:14:02;;;;;;;;;66.00;45.00;;;;;3.04;62.78;101888.25;4937434;28;45398;-51
2023/01/26 06:16:28;;;;;;;;;55.75;46.25;;;;;3.05;62.88;101888.28;4936652;28;46811;-51
2023/01/26 06:18:53;;;;;;;;;62.00;45.00;;;;;3.07;63.24;101893.56;4937357;28;45417;-51
2023/01/26 06:21:19;;;;;;;;;67.75;47.50;;;;;3.07;63.10;101890.97;4937736;28;45374;-52
2023/01/26 06:23:44;;;;;;;;;59.00;46.50;;;;;3.10;62.55;101893.66;4937239;28;45414;-49
2023/01/26 06:26:09;;;;;;;;;57.75;47.00;;;;;3.09;63.12;101891.88;4937397;28;45403;-50
2023/01/26 06:28:35;;;;;;;;;60.25;43.75;;;;;3.10;62.62;101893.66;4936763;28;45390;-52
2023/01/26 06:31:05;;;;;;;;;63.00;47.25;;;;;3.13;62.89;101892.88;4938606;28;45767;-52
2023/01/26 06:33:33;;;;;;;;;71.75;47.75;;;;;3.13;62.71;101885.97;4938838;28;45432;-51
2023/01/26 06:36:08;;;;;;;;;62.25;47.75;;;;;3.15;63.16;101880.84;4938839;28;45463;-51
2023/01/26 06:38:34;;;;;;;;;62.50;50.00;;;;;3.14;62.54;101892.06;4938908;28;45769;-49
2023/01/26 06:41:01;;;;;;;;;64.50;48.25;;;;;3.15;62.88;101889.50;4938294;28;45490;-51
2023/01/26 06:43:29;;;;;;;;;54.00;44.25;;;;;3.15;62.71;101884.31;4938747;28;45543;-51
2023/01/26 06:45:58;;;;;;;;;56.00;44.50;;;;;3.15;62.95;101884.31;4941009;28;45439;-52
2023/01/26 06:48:28;;;;;;;;;60.25;42.00;;;;;3.17;62.76;101893.06;4941021;28;45415;-51
2023/01/26 06:51:03;;;;;;;;;70.75;54.75;;;;;3.18;63.07;101888.72;4940954;28;45302;-51
2023/01/26 06:53:33;;;;;;;;;60.50;39.00;;;;;3.20;63.09;101890.53;4923658;28;45289;-51
2023/01/26 06:55:58;;;;;;;;;62.50;44.50;;;;;3.20;63.10;101900.94;4923552;28;45317;-49
2023/01/26 06:58:24;;;;;;;;;63.00;48.00;;;;;3.23;62.67;101907.94;4942556;28;45316;-52
2023/01/26 07:00:49;;;;;;;;;58.25;45.75;;;;;3.24;63.21;101900.19;4943812;28;45374;-48
2023/01/26 07:03:15;;;;;;;;;51.75;41.75;;;;;3.27;63.30;101893.34;4944159;28;45248;-53
2023/01/26 07:05:40;;;;;;;;;60.00;43.00;;;;;3.26;63.20;101897.69;4944238;28;45494;-48
2023/01/26 07:08:07;;;;;;;;;63.25;47.00;;;;;3.29;63.14;101891.72;4927406;28;45337;-52
2023/01/26 07:10:36;;;;;;;;;65.50;49.00;;;;;3.29;63.15;101886.50;4948973;28;46152;-51
2023/01/26 07:13:03;;;;;;;;;64.00;46.75;;;;;3.31;63.30;101890.94;4952972;28;45500;-52
2023/01/26 07:15:28;;;;;;;;;65.50;46.75;;;;;3.29;62.79;101887.38;4952579;28;45287;-52
2023/01/26 07:17:56;;;;;;;;;58.00;45.25;;;;;3.33;62.93;101888.38;4950740;28;45458;-50
2023/01/26 07:20:21;;;;;;;;;69.50;49.75;;;;;3.35;63.05;101897.13;4951416;28;46186;-49
2023/01/26 07:22:47;;;;;;;;;73.00;51.75;;;;;3.35;62.83;101897.13;4933710;28;45440;-52
2023/01/26 07:25:12;;;;;;;;;72.25;50.25;;;;;3.36;62.88;101896.28;4949893;28;45449;-52
2023/01/26 07:27:37;;;;;;;;;72.75;54.00;;;;;3.38;62.93;101902.41;4935857;28;45640;-50
2023/01/26 07:30:03;;;;;;;;;67.25;50.00;;;;;3.40;62.45;101908.53;4943605;28;45442;-49
2023/01/26 07:32:29;;;;;;;;;62.25;48.75;;;;;3.38;63.15;101902.41;4926281;28;45323;-52
2023/01/26 07:34:54;;;;;;;;;62.00;48.00;;;;;3.42;62.92;101912.06;4946458;28;45212;-50
2023/01/26 07:37:19;;;;;;;;;66.25;49.25;;;;;3.43;62.98;101913.84;4934648;28;46493;-50
2023/01/26 07:39:45;;;;;;;;;62.00;47.75;;;;;3.43;62.95;101908.63;4951505;28;46079;-52
2023/01/26 07:42:10;;;;;;;;;55.00;42.00;;;;;3.44;62.82;101913.00;4948768;28;45406;-52
2023/01/26 07:44:35;;;;;;;;;66.25;48.75;;;;;3.44;62.99;101913.00;4952566;28;45532;-51
2023/01/26 07:47:01;;;;;;;;;62.50;48.50;;;;;3.47;63.14;101917.41;4952851;28;45247;-50
2023/01/26 07:49:26;;;;;;;;;64.75;48.50;;;;;3.47;63.33;101913.13;4942742;28;46199;-52
2023/01/26 07:51:52;;;;;;;;;62.50;47.00;;;;;3.48;63.43;101909.66;4948751;28;45255;-52
2023/01/26 07:54:20;;;;;;;;;70.00;52.00;;;;;3.50;63.25;101917.53;4943411;28;45329;-53
2023/01/26 07:56:45;;;;;;;;;66.50;48.75;;;;;3.49;62.98;101919.25;4942852;28;45659;-52
2023/01/26 07:59:11;;;;;;;;;66.00;48.50;;;;;3.49;63.07;101916.63;4943118;28;46221;-53
2023/01/26 08:01:36;;;;;;;;;67.75;47.50;;;;;3.50;63.43;101923.63;4943019;28;45348;-49
2023/01/26 08:04:02;;;;;;;;;64.75;49.00;;;;;3.52;63.42;101923.66;4943562;28;45459;-51
2023/01/26 08:06:27;;;;;;;;;65.75;49.00;;;;;3.53;63.25;101922.84;4942893;28;45627;-51
2023/01/26 08:08:52;;;;;;;;;61.50;46.75;;;;;3.54;63.14;101924.59;4941839;28;46133;-50
2023/01/26 08:11:21;;;;;;;;;64.50;48.50;;;;;3.55;63.57;101931.56;4942501;28;45316;-49
2023/01/26 08:13:46;;;;;;;;;55.50;41.25;;;;;3.56;63.29;101931.63;4943029;28;45212;-49
2023/01/26 08:16:12;;;;;;;;;69.50;51.00;;;;;3.56;63.42;101936.81;4942865;28;45534;-47
2023/01/26 08:18:38;;;;;;;;;65.50;47.00;;;;;3.57;63.01;101941.19;4942773;28;46302;-52
2023/01/26 08:21:04;;;;;;;;;64.25;45.50;;;;;3.60;62.95;101939.50;4918900;28;45388;-49
2023/01/26 08:23:30;;;;;;;;;65.50;49.00;;;;;3.60;63.26;101942.09;4943032;28;45347;-49
2023/01/26 08:26:00;;;;;;;;;64.50;46.25;;;;;3.62;63.24;101945.66;4942438;28;45587;-51
2023/01/26 08:28:25;;;;;;;;;62.00;47.00;;;;;3.65;63.66;101945.75;4942853;28;46003;-52
2023/01/26 08:30:50;;;;;;;;;61.75;44.50;;;;;3.66;63.57;101943.22;4942627;28;45482;-50
2023/01/26 08:33:16;;;;;;;;;69.50;50.00;;;;;3.69;63.13;101943.31;4942882;28;45220;-51
2023/01/26 08:35:41;;;;;;;;;61.00;44.25;;;;;3.71;63.55;101949.44;4942601;28;45249;-50
2023/01/26 08:38:06;;;;;;;;;57.50;45.25;;;;;3.74;63.19;101953.88;4942915;28;45252;-51
2023/01/26 08:40:32;;;;;;;;;68.25;48.50;;;;;3.72;63.19;101959.03;4942943;28;45393;-53
2023/01/26 08:42:59;;;;;;;;;59.00;41.25;;;;;3.77;63.45;101961.75;4942720;28;45218;-54
2023/01/26 08:45:24;;;;;;;;;56.00;45.50;;;;;3.80;63.05;101960.97;4925486;28;45353;-53
2023/01/26 08:47:52;;;;;;;;;66.00;44.25;;;;;3.81;63.29;101955.84;4942183;28;52080;-53
2023/01/26 08:50:18;;;;;;;;;61.75;44.00;;;;;3.86;63.11;101954.28;4935907;28;45255;-53
2023/01/26 08:52:43;;;;;;;;;66.75;49.75;;;;;3.89;63.28;101956.97;4942699;28;45220;-51
2023/01/26 08:55:09;;;;;;;;;55.25;43.25;;;;;3.93;63.45;101957.97;4924755;28;45259;-50
2023/01/26 08:57:34;;;;;;;;;58.50;44.50;;;;;3.98;63.48;101947.72;4942282;28;45326;-52
2023/01/26 08:59:59;;;;;;;;;57.25;44.25;;;;;4.01;63.45;101948.69;4942052;28;45499;-52
2023/01/26 09:02:25;;;;;;;;;53.75;40.75;;;;;4.04;63.70;101948.78;4924911;28;45234;-49
2023/01/26 09:04:50;;;;;;;;;57.25;44.00;;;;;4.07;63.57;101951.50;4942006;28;45226;-49
2023/01/26 09:07:15;;;;;;;;;45.25;35.75;;;;;4.09;63.57;101951.53;4942178;28;46101;-50
2023/01/26 09:09:41;;;;;;;;;59.50;41.25;;;;;4.13;63.44;101955.13;4941816;28;45211;-51
2023/01/26 09:12:06;;;;;;;;;49.00;41.50;;;;;4.16;63.45;101958.69;4924563;28;45356;-49
2023/01/26 09:14:31;;;;;;;;;47.00;35.75;;;;;4.17;63.46;101960.44;4941753;28;45173;-53
2023/01/26 09:16:57;;;;;;;;;62.00;48.25;;;;;4.22;63.46;101969.28;4942047;28;50394;-49
2023/01/26 09:19:22;;;;;;;;;55.50;41.75;;;;;4.25;63.52;101963.28;4935475;28;45188;-53
2023/01/26 09:21:52;;;;;;;;;56.25;44.25;;;;;4.29;63.68;101970.38;4941781;28;45189;-49
2023/01/26 09:24:17;;;;;;;;;48.50;39.75;;;;;4.33;63.53;101980.03;4941747;28;45572;-50
2023/01/26 09:26:43;;;;;;;;;57.25;45.75;;;;;4.34;63.39;101976.63;4941687;28;46121;-50
2023/01/26 09:29:08;;;;;;;;;62.00;45.75;;;;;4.39;63.27;101969.81;4924624;28;45401;-49
2023/01/26 09:31:33;;;;;;;;;50.25;39.00;;;;;4.44;63.47;101984.69;4942041;28;45350;-51
2023/01/26 09:33:59;;;;;;;;;56.00;38.50;;;;;4.46;63.63;101983.03;4941744;28;45205;-49
2023/01/26 09:36:25;;;;;;;;;61.25;43.75;;;;;4.50;63.39;101977.97;4941721;28;46253;-48
2023/01/26 09:38:51;;;;;;;;;58.25;44.75;;;;;4.53;63.21;101988.47;4941763;28;46058;-53
2023/01/26 09:41:41;;;;;;;;;62.50;44.50;;;;;4.59;63.58;101994.69;4941658;28;45387;-48
2023/01/26 09:44:19;;;;;;;;;64.75;48.00;;;;;4.61;63.51;101987.84;4941753;28;45323;-48
2023/01/26 09:47:22;;;;;;;;;63.75;46.75;;;;;4.65;63.49;101981.88;4941587;28;46153;-49
2023/01/26 09:49:51;;;;;;;;;50.25;41.75;;;;;4.69;63.44;101986.31;4934442;28;45460;-49
2023/01/26 09:52:25;;;;;;;;;47.25;38.00;;;;;4.73;63.69;101980.38;4941774;28;45461;-50
2023/01/26 09:54:53;;;;;;;;;62.75;47.00;;;;;4.76;63.48;101988.28;4941187;28;45175;-51
2023/01/26 09:57:46;;;;;;;;;63.75;47.25;;;;;4.81;63.61;101985.81;4941554;28;45901;-52
2023/01/26 10:00:20;;;;;;;;;66.00;49.00;;;;;4.84;63.56;101993.72;4939387;28;45247;-52
2023/01/26 10:03:10;;;;;;;;;59.50;46.50;;;;;4.87;63.62;101991.22;4941621;28;45510;-49
2023/01/26 10:06:14;;;;;;;;;61.50;46.50;;;;;4.90;63.53;101993.91;4941462;28;45662;-52
2023/01/26 10:08:42;;;;;;;;;60.50;44.75;;;;;4.92;63.58;101993.94;4934080;28;46195;-53
2023/01/26 10:11:24;;;;;;;;;61.75;48.25;;;;;4.96;63.83;101999.28;4940900;28;45368;-52
2023/01/26 10:13:56;;;;;;;;;63.25;46.00;;;;;4.97;63.56;101998.44;4941238;28;45288;-53
2023/01/26 10:16:23;;;;;;;;;58.75;46.00;;;;;4.98;63.39;101995.03;4941335;28;45169;-52
2023/01/26 10:18:52;;;;;;;;;65.00;48.75;;;;;5.01;63.49;101999.44;4941144;28;46331;-52
2023/01/26 10:21:22;;;;;;;;;57.00;47.75;;;;;5.02;63.67;101999.47;4936647;28;45346;-52
2023/01/26 10:23:48;;;;;;;;;65.75;49.50;;;;;4.99;63.51;101998.50;4941384;28;45375;-53
2023/01/26 10:26:19;;;;;;;;;62.00;46.00;;;;;5.04;63.73;102000.41;4940804;28;45402;-51
2023/01/26 10:28:47;;;;;;;;;70.00;49.75;;;;;5.08;63.57;102000.47;4940957;28;45369;-52
2023/01/26 10:31:19;;;;;;;;;63.25;48.75;;;;;5.08;63.52;101996.16;4940967;28;45184;-54
2023/01/26 10:33:51;;;;;;;;;69.00;52.25;;;;;5.14;63.55;101998.91;4926447;28;45278;-51
2023/01/26 10:36:17;;;;;;;;;75.25;51.50;;;;;5.18;63.86;102003.41;4944455;28;45400;-54
2023/01/26 10:38:45;;;;;;;;;60.75;45.50;;;;;5.23;63.77;101992.22;4944482;28;45410;-53
2023/01/26 10:41:15;;;;;;;;;59.00;42.75;;;;;5.27;63.73;101996.66;4951123;28;45392;-52
2023/01/26 10:43:48;;;;;;;;;69.00;51.25;;;;;5.30;63.84;101989.81;4951224;28;45687;-55
2023/01/26 10:46:26;;;;;;;;;67.50;49.50;;;;;5.35;63.55;101992.56;4951888;28;45331;-51
2023/01/26 10:48:57;;;;;;;;;64.00;49.25;;;;;5.36;63.51;101979.56;4952512;28;45354;-54
2023/01/26 10:51:32;;;;;;;;;62.00;47.00;;;;;5.44;63.62;101984.09;4947274;28;45493;-52
2023/01/26 10:54:22;;;;;;;;;65.50;50.75;;;;;5.50;63.85;101982.53;4935514;28;45303;-53
2023/01/26 10:56:57;;;;;;;;;72.00;48.25;;;;;5.53;63.58;101989.56;4952275;28;45395;-50
2023/01/26 10:59:25;;;;;;;;;62.25;46.75;;;;;5.59;63.86;101994.06;4937122;28;46066;-50
2023/01/26 11:01:57;;;;;;;;;66.75;49.00;;;;;5.62;63.68;101983.69;4943445;28;45381;-52
2023/01/26 11:04:24;;;;;;;;;66.00;48.00;;;;;5.66;63.68;101983.81;4944010;28;45429;-52
2023/01/26 11:06:50;;;;;;;;;61.00;47.00;;;;;5.69;63.82;101969.97;4943648;28;45261;-52
2023/01/26 11:09:26;;;;;;;;;66.50;48.00;;;;;5.74;63.71;101970.09;4943294;28;46093;-55
2023/01/26 11:11:57;;;;;;;;;58.00;44.25;;;;;5.79;63.79;101966.75;4943573;28;45237;-51
2023/01/26 11:14:24;;;;;;;;;46.50;38.25;;;;;5.84;63.66;101965.13;4943787;28;45423;-52
2023/01/26 11:17:08;;;;;;;;;55.00;43.00;;;;;5.89;63.82;101953.94;4950722;28;45466;-52
2023/01/26 11:19:40;;;;;;;;;49.00;39.50;;;;;5.95;63.86;101949.75;4943046;28;45245;-50
2023/01/26 11:22:10;;;;;;;;;48.75;40.00;;;;;6.00;63.65;101957.75;4951741;28;45409;-50
2023/01/26 11:25:01;;;;;;;;;45.00;37.25;;;;;6.06;63.85;101943.94;4933361;28;45249;-50
2023/01/26 11:27:46;;;;;;;;;48.25;38.75;;;;;6.10;64.00;101951.00;4950996;28;45454;-51
2023/01/26 11:30:39;;;;;;;;;45.00;38.25;;;;;6.16;63.96;101945.91;4952824;28;45434;-48
2023/01/26 11:33:40;;;;;;;;;46.75;38.25;;;;;6.23;63.85;101944.34;4951581;28;45346;-51
2023/01/26 11:36:25;;;;;;;;;44.00;36.00;;;;;6.27;63.77;101944.44;4922789;28;45517;-50
2023/01/26 11:39:18;;;;;;;;;53.50;39.25;;;;;6.31;63.64;101945.38;4933808;28;45403;-50
2023/01/26 11:41:58;;;;;;;;;37.50;34.50;;;;;6.34;63.65;101935.03;4917864;28;47176;-51
2023/01/26 11:44:34;;;;;;;;;48.50;39.25;;;;;6.36;63.62;101933.31;4950024;28;45486;-54
2023/01/26 11:47:10;;;;;;;;;49.50;39.00;;;;;6.45;63.76;101936.16;4944619;28;45388;-50
2023/01/26 11:49:49;;;;;;;;;50.75;39.75;;;;;6.50;63.86;101936.22;4953206;28;45296;-51
2023/01/26 11:52:45;;;;;;;;;40.00;34.00;;;;;6.54;63.79;101931.97;4942870;28;46329;-51
2023/01/26 11:55:17;;;;;;;;;48.75;37.00;;;;;6.58;63.79;101936.38;4942548;28;45181;-51
2023/01/26 11:58:17;;;;;;;;;49.00;40.75;;;;;6.60;63.87;101938.22;4943393;28;45300;-51
2023/01/26 12:00:54;;;;;;;;;50.25;38.00;;;;;6.63;63.77;101934.78;4932292;28;45327;-53
2023/01/26 12:03:44;;;;;;;;;53.50;41.50;;;;;6.65;63.70;101933.06;4943288;28;45447;-48
2023/01/26 12:06:28;;;;;;;;;40.50;36.25;;;;;6.67;63.86;101926.16;4943161;28;45209;-49
2023/01/26 12:09:10;;;;;;;;;55.50;41.00;;;;;6.69;63.80;101924.44;4931028;28;45658;-47